Lewistown, MT

3:47 AM MST on December 28, 2014 (GMT -0700)
3/4 mile S of Lewistown | Change Station
CLOSE
Current Station
Personal Weather Station
Location: Lewistown, Mt
Elevation: 4189 ft
Nearby Weather Stations
Active Advisory: Winter Weather Advisory

Elev 4189 ft 47.04 °N, 109.42 °W | Updated 5 seconds ago

Light Snow
Light Snow Mist
22.7 °F
Feels Like 23 °F
N
2.0
Wind Variable Wind from SSE
Gusts 4.0 mph

Today
High -- | Low -- °F
--% Chance of Precip.
Yesterday
High -- | Low -- °F
Precip. -- in
8:03 AM 4:35 PM
Waxing Crescent, 46% visible
Pressure 29.79 in
Visibility 1.5 miles
Clouds Overcast 1400 ft
Windchill 23 °F
Dew Point 21 °F
Humidity 93%
Rainfall 0.00 in
Snow Depth Not available.
UV 0 out of 12
Pollen .10 out of 12
Air Quality Not available.
Flu Activity Not available.
SPECI KLWT 281027Z AUTO 12004KT 1 1/2SM -SN BR OVC014 M03/M05 A2979 RMK AO2 P0002 T10331050

More Conditions Fewer Conditions

Pressure 29.79 in
Visibility 1.5 miles
Clouds Overcast 1400 ft
Windchill 23 °F
Dew Point 21 °F
Humidity 93%
Rainfall 0.00 in
Snow Depth Not available.
UV 0 out of 12
Pollen .10 out of 12
Air Quality Not available.
Flu Activity Not available.
SPECI KLWT 281027Z AUTO 12004KT 1 1/2SM -SN BR OVC014 M03/M05 A2979 RMK AO2 P0002 T10331050

More Conditions Fewer Conditions

10-Day Weather Forecast

Almanac

Astronomy

Dec. 28, 2014 Rise Set
Actual Time
Civil Twilight
Nautical Twilight
Astronomical Twilight
Moon
Length of Visible Light
Length of Day
Tomorrow will be .
, % of the Moon is Illuminated

Today's Extremes

State Highs State Lows

Community

WunderPhotos

Upload Photos

1,781,232 photos uploaded!

WunderBlogs® & News

Nearby

Air Quality

  Air Quality AQ Index Pollutant
Not available.

Snow Depth

Station Depth Elevation

Earthquake Activity

City Distance Mag. Time & Date
Minimum magnitude displayed is 2.5.

Coastal Water Temperatures

Place Temperature

Nearby Weather Stations